Time;durP1;ratioP1;P1;durP2;ratioP2;P2;SDS_P1;SDS_P2;PMS_P1;PMS_P2;Temp;Humidity;BMP_temperature;BMP_pressure;BME280_temperature;BME280_humidity;BME280_pressure;Samples;Min_cycle;Max_cycle;Signal;HPM_P1;HPM_P2
2023/12/22 00:00:29;;;;;;;4.30;0.80;;;5.10;99.90;;;;;;5076554;28;20462;-75
2023/12/22 00:02:54;;;;;;;0.70;0.50;;;5.20;99.90;;;;;;5075339;28;20420;-75
2023/12/22 00:05:20;;;;;;;1.93;0.73;;;5.10;99.90;;;;;;5074082;28;20746;-75
2023/12/22 00:07:45;;;;;;;0.70;0.50;;;5.20;99.90;;;;;;5074735;28;20388;-74
2023/12/22 00:10:11;;;;;;;0.70;0.50;;;5.20;99.90;;;;;;5074429;28;20501;-75
2023/12/22 00:12:38;;;;;;;9.00;0.70;;;5.20;99.90;;;;;;5074085;28;20425;-74
2023/12/22 00:15:05;;;;;;;0.70;0.50;;;5.20;99.90;;;;;;5056265;28;20754;-73
2023/12/22 00:17:30;;;;;;;0.70;0.50;;;5.20;99.90;;;;;;5073741;28;20383;-74
2023/12/22 00:19:58;;;;;;;1.50;0.80;;;5.30;99.90;;;;;;5073723;28;20376;-75
2023/12/22 00:22:25;;;;;;;0.70;0.50;;;5.30;99.90;;;;;;5073690;28;20926;-75
2023/12/22 00:24:51;;;;;;;4.00;0.80;;;5.30;99.90;;;;;;5073645;28;20984;-75
2023/12/22 00:27:16;;;;;;;1.20;0.70;;;5.30;99.90;;;;;;5075010;28;20454;-75
2023/12/22 00:29:42;;;;;;;1.40;0.90;;;5.30;99.90;;;;;;5074068;28;20388;-74
2023/12/22 00:32:09;;;;;;;0.70;0.60;;;5.30;99.90;;;;;;5073490;28;20706;-74
2023/12/22 00:34:35;;;;;;;1.10;0.70;;;5.40;99.90;;;;;;5073644;28;20400;-74
2023/12/22 00:37:01;;;;;;;1.23;0.65;;;5.40;99.90;;;;;;5073258;28;20392;-74
2023/12/22 00:39:27;;;;;;;1.85;0.77;;;5.50;99.90;;;;;;5054621;28;20449;-74
2023/12/22 00:41:53;;;;;;;2.70;0.85;;;5.50;99.90;;;;;;5073434;28;20384;-73
2023/12/22 00:44:18;;;;;;;1.40;0.80;;;5.60;99.90;;;;;;5073505;28;20429;-74
2023/12/22 00:46:44;;;;;;;1.38;0.93;;;5.60;99.90;;;;;;5073325;28;20752;-74
2023/12/22 00:49:09;;;;;;;0.70;0.70;;;5.70;99.90;;;;;;5073629;28;20462;-74
2023/12/22 00:51:35;;;;;;;2.00;0.90;;;5.70;99.90;;;;;;5079725;28;20365;-74
2023/12/22 00:54:00;;;;;;;0.70;0.40;;;5.60;99.90;;;;;;5086420;28;20410;-74
2023/12/22 00:56:26;;;;;;;4.47;1.48;;;5.80;99.90;;;;;;5073180;28;20380;-73
2023/12/22 00:58:51;;;;;;;0.70;0.70;;;5.70;99.90;;;;;;5073203;28;20661;-73
2023/12/22 01:01:17;;;;;;;5.50;1.40;;;5.60;99.90;;;;;;5072895;28;20723;-73
2023/12/22 01:03:42;;;;;;;8.50;2.10;;;5.80;99.90;;;;;;5072874;28;20379;-74
2023/12/22 01:06:08;;;;;;;13.82;2.80;;;5.70;99.90;;;;;;5073060;28;20384;-72
2023/12/22 01:08:33;;;;;;;10.65;2.40;;;5.70;99.90;;;;;;5073706;28;20387;-73
2023/12/22 01:10:59;;;;;;;8.70;2.30;;;5.80;99.90;;;;;;5072600;28;20384;-74
2023/12/22 01:13:24;;;;;;;8.85;2.40;;;5.80;99.90;;;;;;5073117;28;20403;-74
2023/12/22 01:15:51;;;;;;;10.40;2.43;;;5.90;99.90;;;;;;5080589;28;20922;-73
2023/12/22 01:18:16;;;;;;;13.93;3.00;;;5.80;99.90;;;;;;5055049;28;20383;-73
2023/12/22 01:20:42;;;;;;;11.60;2.70;;;5.80;99.90;;;;;;5072840;28;20459;-73
2023/12/22 01:23:07;;;;;;;8.68;2.40;;;5.80;99.90;;;;;;5054383;28;20800;-72
2023/12/22 01:25:33;;;;;;;14.32;2.70;;;5.90;99.90;;;;;;5073068;28;20818;-73
2023/12/22 01:27:59;;;;;;;18.98;3.13;;;5.80;99.90;;;;;;5073038;28;20437;-73
2023/12/22 01:30:24;;;;;;;13.10;2.67;;;5.80;99.90;;;;;;5073101;28;20387;-73
2023/12/22 01:32:50;;;;;;;19.20;3.40;;;5.80;99.90;;;;;;5072342;28;20399;-73
2023/12/22 01:35:15;;;;;;;14.83;3.50;;;5.90;99.90;;;;;;5054360;28;20724;-74
2023/12/22 01:37:41;;;;;;;13.27;2.97;;;5.90;99.90;;;;;;5072939;28;20872;-74
2023/12/22 01:40:07;;;;;;;13.07;2.50;;;5.90;99.90;;;;;;5073405;28;20861;-74
2023/12/22 01:42:33;;;;;;;16.63;3.15;;;6.00;99.90;;;;;;5074035;28;20384;-75
2023/12/22 01:44:58;;;;;;;10.80;2.77;;;6.00;99.90;;;;;;5073337;28;20867;-73
2023/12/22 01:47:24;;;;;;;12.60;2.90;;;6.00;99.90;;;;;;5073848;28;20866;-74
2023/12/22 01:49:50;;;;;;;14.43;3.25;;;6.10;99.90;;;;;;5077713;28;20872;-75
2023/12/22 01:52:16;;;;;;;0.70;0.60;;;6.10;99.90;;;;;;5075406;28;20407;-75
2023/12/22 01:54:42;;;;;;;0.80;0.60;;;6.10;99.90;;;;;;5065284;28;20406;-75
2023/12/22 01:57:10;;;;;;;6.30;0.90;;;6.10;99.90;;;;;;5080051;28;20380;-75
2023/12/22 01:59:36;;;;;;;9.65;0.75;;;6.00;99.90;;;;;;5081872;28;20372;-73
2023/12/22 02:02:04;;;;;;;3.50;0.80;;;6.10;99.90;;;;;;5080797;28;20383;-75
2023/12/22 02:04:31;;;;;;;1.10;0.70;;;6.10;98.70;;;;;;5081344;28;20456;-76
2023/12/22 02:07:02;;;;;;;0.98;0.60;;;6.10;96.20;;;;;;5079139;28;20398;-74
2023/12/22 02:09:27;;;;;;;9.00;0.90;;;6.20;95.90;;;;;;5064907;28;20407;-74
2023/12/22 02:11:53;;;;;;;0.70;0.60;;;6.20;95.10;;;;;;5089744;28;20391;-75
2023/12/22 02:14:19;;;;;;;1.60;0.70;;;6.20;95.70;;;;;;5065116;28;20396;-76
2023/12/22 02:17:35;;;;;;;4.20;0.80;;;6.30;96.50;;;;;;5075723;28;20398;-75
2023/12/22 02:20:01;;;;;;;1.00;0.77;;;6.30;99.10;;;;;;5024889;28;20436;-74
2023/12/22 02:22:29;;;;;;;1.80;0.73;;;6.20;96.80;;;;;;5077551;28;20474;-73
2023/12/22 02:24:54;;;;;;;0.90;0.60;;;5.70;96.70;;;;;;5071723;28;20461;-74
2023/12/22 02:27:38;;;;;;;1.23;0.60;;;5.50;99.90;;;;;;5075372;28;20432;-74
2023/12/22 02:30:09;;;;;;;0.70;0.50;;;5.30;99.90;;;;;;5073714;28;20391;-73
2023/12/22 02:32:38;;;;;;;1.30;0.60;;;5.30;99.90;;;;;;5090003;22;20384;-71
2023/12/22 02:35:09;;;;;;;2.00;0.70;;;5.20;99.90;;;;;;5111141;28;20377;-72
2023/12/22 02:37:36;;;;;;;0.70;0.70;;;5.30;99.90;;;;;;5111110;28;20719;-72
2023/12/22 02:40:02;;;;;;;4.32;1.10;;;5.10;99.90;;;;;;5092682;28;20376;-72
2023/12/22 02:42:30;;;;;;;0.70;0.50;;;5.00;99.90;;;;;;5110937;28;20413;-72
2023/12/22 02:44:59;;;;;;;1.90;0.80;;;4.90;99.90;;;;;;5110848;28;20376;-72
2023/12/22 02:47:27;;;;;;;6.30;0.60;;;4.90;99.90;;;;;;5110945;28;20790;-72
2023/12/22 02:49:53;;;;;;;0.80;0.70;;;4.90;99.90;;;;;;5111744;28;20800;-73
2023/12/22 02:52:19;;;;;;;8.20;0.70;;;4.80;99.90;;;;;;5110485;28;20487;-73
2023/12/22 02:54:46;;;;;;;0.70;0.50;;;4.80;99.90;;;;;;5110705;28;20788;-72
2023/12/22 02:57:12;;;;;;;1.00;0.70;;;4.80;99.90;;;;;;5110663;28;20732;-72
2023/12/22 02:59:39;;;;;;;0.90;0.50;;;4.90;99.90;;;;;;5110801;28;20472;-72
2023/12/22 03:02:05;;;;;;;0.70;0.70;;;4.90;99.90;;;;;;5110654;28;20381;-72
2023/12/22 03:04:30;;;;;;;0.90;0.60;;;4.80;99.90;;;;;;5091941;28;20384;-72
2023/12/22 03:06:56;;;;;;;8.23;0.98;;;4.90;99.90;;;;;;5110844;28;20822;-72
2023/12/22 03:09:22;;;;;;;0.70;0.50;;;4.90;99.90;;;;;;5110387;28;20387;-73
2023/12/22 03:11:48;;;;;;;3.00;1.20;;;4.90;99.90;;;;;;5110551;28;20377;-73
2023/12/22 03:14:14;;;;;;;0.70;0.50;;;4.90;99.90;;;;;;5110473;28;20376;-72
2023/12/22 03:16:40;;;;;;;0.70;0.50;;;4.90;99.90;;;;;;5110387;28;20377;-73
2023/12/22 03:19:06;;;;;;;3.38;0.80;;;4.90;99.90;;;;;;5110505;28;20620;-72
2023/12/22 03:21:32;;;;;;;1.10;0.80;;;4.90;99.90;;;;;;5110702;28;20471;-73
2023/12/22 03:23:58;;;;;;;2.40;0.50;;;4.90;99.90;;;;;;5110565;28;20529;-73
2023/12/22 03:26:26;;;;;;;0.70;0.50;;;4.90;99.90;;;;;;5111519;28;20403;-73
2023/12/22 03:28:51;;;;;;;0.93;0.60;;;4.90;99.90;;;;;;5110893;28;20429;-73
2023/12/22 03:31:17;;;;;;;0.70;0.50;;;5.00;99.90;;;;;;5110369;28;20793;-72
2023/12/22 03:33:42;;;;;;;0.70;0.70;;;5.00;99.90;;;;;;5110586;28;20412;-73
2023/12/22 03:36:08;;;;;;;0.70;0.50;;;4.80;99.90;;;;;;5110393;28;20378;-72
2023/12/22 03:38:33;;;;;;;1.20;0.60;;;4.80;99.90;;;;;;5110342;28;20860;-72
2023/12/22 03:40:59;;;;;;;1.10;0.70;;;4.80;99.90;;;;;;5110450;28;20910;-73
2023/12/22 03:43:24;;;;;;;4.87;0.90;;;4.70;99.90;;;;;;5092110;28;20388;-73
2023/12/22 03:45:50;;;;;;;0.90;0.70;;;4.60;99.90;;;;;;5110247;28;20796;-73
2023/12/22 03:48:15;;;;;;;0.70;0.50;;;4.70;99.90;;;;;;5110308;28;20380;-71
2023/12/22 03:50:41;;;;;;;1.50;0.70;;;4.50;99.90;;;;;;5110048;28;20387;-71
2023/12/22 03:53:06;;;;;;;0.97;0.57;;;4.60;99.90;;;;;;5110019;28;20449;-71
2023/12/22 03:55:32;;;;;;;1.00;0.50;;;4.80;99.90;;;;;;5109935;28;20404;-71
2023/12/22 03:57:57;;;;;;;1.30;0.80;;;4.80;99.90;;;;;;5110274;28;20416;-71
2023/12/22 04:00:23;;;;;;;1.00;0.50;;;4.80;99.90;;;;;;5110128;28;20376;-71
2023/12/22 04:02:48;;;;;;;1.10;0.60;;;4.80;99.90;;;;;;5110170;28;20376;-72
2023/12/22 04:05:14;;;;;;;0.70;0.50;;;4.90;99.90;;;;;;5110150;28;20436;-72
2023/12/22 04:07:39;;;;;;;2.57;0.80;;;5.00;99.90;;;;;;5110488;28;20611;-71
2023/12/22 04:10:05;;;;;;;3.20;1.60;;;5.00;99.90;;;;;;5110218;28;20384;-71
2023/12/22 04:12:31;;;;;;;15.55;3.50;;;5.80;99.60;;;;;;5109851;28;20829;-70
2023/12/22 04:14:56;;;;;;;19.55;4.05;;;5.70;99.90;;;;;;5110923;28;20448;-71
2023/12/22 04:17:22;;;;;;;16.52;3.67;;;5.60;99.90;;;;;;5113756;28;20410;-71
2023/12/22 04:19:47;;;;;;;1.50;0.80;;;5.60;99.90;;;;;;5117783;28;20432;-71
2023/12/22 04:22:13;;;;;;;9.05;2.88;;;5.60;99.10;;;;;;5117950;28;20953;-72
2023/12/22 04:24:38;;;;;;;14.70;3.47;;;5.50;92.30;;;;;;5115443;28;20395;-71
2023/12/22 04:27:04;;;;;;;16.23;3.58;;;5.40;92.40;;;;;;5116128;28;20392;-71
2023/12/22 04:29:30;;;;;;;13.00;4.05;;;5.30;95.30;;;;;;5115183;28;20380;-71
2023/12/22 04:31:55;;;;;;;12.60;3.07;;;5.30;99.60;;;;;;5096306;28;20388;-70
2023/12/22 04:34:21;;;;;;;14.37;3.97;;;5.30;99.90;;;;;;5112975;28;20815;-71
2023/12/22 04:36:46;;;;;;;18.77;4.40;;;5.30;99.90;;;;;;5113332;28;20451;-71
2023/12/22 04:39:12;;;;;;;17.73;4.20;;;5.40;99.90;;;;;;5094824;28;20380;-70
2023/12/22 04:41:38;;;;;;;18.13;4.67;;;5.50;99.90;;;;;;5108153;28;20920;-71
2023/12/22 04:44:04;;;;;;;19.70;3.40;;;5.50;99.90;;;;;;5109935;28;20975;-71
2023/12/22 04:46:30;;;;;;;1.90;1.30;;;5.60;99.90;;;;;;5094907;28;20383;-72
2023/12/22 04:48:56;;;;;;;5.10;1.10;;;5.70;99.90;;;;;;5112300;28;20995;-71
2023/12/22 04:51:21;;;;;;;1.80;0.70;;;5.90;99.40;;;;;;5099300;28;20729;-71
2023/12/22 04:53:47;;;;;;;1.00;0.60;;;6.10;96.40;;;;;;5112507;28;20481;-71
2023/12/22 04:56:12;;;;;;;5.35;1.05;;;6.10;94.60;;;;;;5112030;28;20388;-71
2023/12/22 04:58:38;;;;;;;2.90;0.80;;;6.20;94.40;;;;;;5112905;28;20380;-72
2023/12/22 05:01:03;;;;;;;0.70;0.60;;;6.30;93.50;;;;;;5103396;28;20382;-75
2023/12/22 05:03:29;;;;;;;0.85;0.85;;;6.40;90.30;;;;;;5092295;28;20472;-72
2023/12/22 05:05:54;;;;;;;1.30;0.70;;;6.50;89.50;;;;;;5092280;28;20757;-74
2023/12/22 05:08:20;;;;;;;3.42;0.70;;;6.60;91.70;;;;;;5092134;28;20388;-73
2023/12/22 05:10:45;;;;;;;0.70;0.50;;;6.70;90.70;;;;;;5091985;28;20792;-71
2023/12/22 05:13:11;;;;;;;11.50;1.20;;;6.80;86.90;;;;;;5091982;28;20433;-71
2023/12/22 05:15:36;;;;;;;0.80;0.60;;;6.80;84.40;;;;;;5091591;28;20447;-71
2023/12/22 05:18:02;;;;;;;2.72;0.55;;;6.70;89.40;;;;;;5092067;28;20374;-71
2023/12/22 05:20:28;;;;;;;5.90;0.90;;;6.70;91.50;;;;;;5091827;28;20386;-71
2023/12/22 05:22:54;;;;;;;5.43;1.40;;;6.70;94.30;;;;;;5092006;28;20380;-70
2023/12/22 05:25:19;;;;;;;1.80;1.00;;;6.80;91.70;;;;;;5073036;28;20390;-71
2023/12/22 05:27:45;;;;;;;0.80;0.80;;;6.80;89.40;;;;;;5091628;28;20484;-71
2023/12/22 05:30:11;;;;;;;10.03;1.23;;;6.80;91.60;;;;;;5092303;28;20386;-71
2023/12/22 05:32:37;;;;;;;2.00;1.00;;;6.80;89.50;;;;;;5091816;28;20458;-70
2023/12/22 05:35:02;;;;;;;0.90;0.90;;;6.70;89.80;;;;;;5091778;28;20465;-70
2023/12/22 05:37:28;;;;;;;3.80;1.10;;;6.80;87.40;;;;;;5091699;28;20386;-71
2023/12/22 05:39:53;;;;;;;0.70;0.60;;;6.90;85.30;;;;;;5091627;28;20891;-71
2023/12/22 05:42:19;;;;;;;0.70;0.50;;;7.00;80.80;;;;;;5091560;28;20900;-70
2023/12/22 05:44:46;;;;;;;1.90;1.10;;;7.00;80.10;;;;;;5091659;28;20378;-70
2023/12/22 05:47:13;;;;;;;2.92;0.93;;;7.10;78.10;;;;;;5091219;28;20564;-70
2023/12/22 05:49:40;;;;;;;4.95;1.38;;;7.20;73.30;;;;;;5091583;28;20389;-70
2023/12/22 05:52:06;;;;;;;3.30;1.20;;;7.30;71.60;;;;;;5091482;28;20380;-70
2023/12/22 05:54:31;;;;;;;1.00;0.60;;;7.30;73.60;;;;;;5091469;28;20940;-71
2023/12/22 05:56:57;;;;;;;3.80;1.00;;;7.00;99.90;;;;;;5073437;28;20451;-71
2023/12/22 05:59:22;;;;;;;3.37;1.20;;;6.70;99.90;;;;;;5091260;28;20449;-71
2023/12/22 06:01:52;;;;;;;8.50;0.80;;;6.40;99.90;;;;;;5091390;28;20864;-71
2023/12/22 06:04:18;;;;;;;6.50;0.70;;;6.30;99.90;;;;;;5090897;28;20373;-70
2023/12/22 06:06:44;;;;;;;2.67;1.05;;;6.30;99.90;;;;;;5090935;28;20745;-70
2023/12/22 06:09:12;;;;;;;1.13;0.50;;;6.30;99.90;;;;;;5091149;28;20474;-70
2023/12/22 06:11:39;;;;;;;0.80;0.63;;;6.30;99.90;;;;;;5091107;28;20382;-70
2023/12/22 06:14:05;;;;;;;2.40;0.98;;;6.30;99.90;;;;;;5090604;28;20436;-70
2023/12/22 06:16:31;;;;;;;3.03;1.02;;;6.40;99.90;;;;;;5090980;28;20377;-69
2023/12/22 06:18:56;;;;;;;0.70;0.70;;;6.40;99.90;;;;;;5072902;28;20888;-72
2023/12/22 06:21:22;;;;;;;1.15;1.05;;;6.40;99.90;;;;;;5090958;28;20386;-70
2023/12/22 06:23:48;;;;;;;8.00;1.20;;;6.50;99.90;;;;;;5090822;28;20813;-71
2023/12/22 06:26:13;;;;;;;1.00;0.90;;;6.50;99.90;;;;;;5090687;28;20386;-71
2023/12/22 06:28:39;;;;;;;0.70;0.67;;;6.40;99.90;;;;;;5090988;28;20851;-71
2023/12/22 06:31:18;;;;;;;1.13;0.60;;;6.40;99.90;;;;;;5091366;28;20440;-71
2023/12/22 06:33:43;;;;;;;1.20;0.70;;;6.40;99.90;;;;;;5090590;28;20410;-71
2023/12/22 06:36:18;;;;;;;2.03;1.17;;;6.50;99.90;;;;;;5090839;28;20856;-71
2023/12/22 06:38:43;;;;;;;4.70;0.70;;;6.60;99.90;;;;;;5071869;28;20406;-71
2023/12/22 06:41:28;;;;;;;0.70;0.60;;;6.60;99.90;;;;;;5090859;28;20385;-71
2023/12/22 06:43:53;;;;;;;1.30;0.57;;;6.70;98.30;;;;;;5090769;28;20382;-71
2023/12/22 06:46:21;;;;;;;0.70;0.50;;;6.80;94.20;;;;;;5090035;28;20443;-71
2023/12/22 06:48:48;;;;;;;3.20;1.40;;;6.90;92.30;;;;;;5090750;28;20382;-71
2023/12/22 06:51:27;;;;;;;2.50;0.70;;;7.00;88.60;;;;;;5090586;28;20378;-71
2023/12/22 06:53:55;;;;;;;2.10;1.20;;;7.10;88.50;;;;;;5090547;28;20428;-71
2023/12/22 06:56:22;;;;;;;0.80;0.50;;;7.20;86.40;;;;;;5090386;28;20370;-71
2023/12/22 06:58:49;;;;;;;2.30;0.70;;;7.30;82.20;;;;;;5090552;28;20388;-71
2023/12/22 07:01:20;;;;;;;0.80;0.50;;;7.40;82.60;;;;;;5090804;28;20428;-71
2023/12/22 07:03:46;;;;;;;0.80;0.70;;;7.50;80.00;;;;;;5090316;28;20390;-72
2023/12/22 07:06:11;;;;;;;1.10;0.60;;;7.50;79.10;;;;;;5090438;28;20381;-71
2023/12/22 07:08:37;;;;;;;0.80;0.50;;;7.60;78.70;;;;;;5090442;28;20446;-71
2023/12/22 07:11:03;;;;;;;4.50;1.10;;;7.60;76.50;;;;;;5090804;28;20885;-71
2023/12/22 07:13:28;;;;;;;6.70;0.60;;;7.70;76.80;;;;;;5091328;28;20470;-71
2023/12/22 07:15:54;;;;;;;6.00;1.20;;;7.70;73.20;;;;;;5090979;28;20511;-71
2023/12/22 07:18:19;;;;;;;1.00;0.90;;;7.80;72.50;;;;;;5090958;28;20405;-71
2023/12/22 07:20:45;;;;;;;0.80;0.50;;;7.90;71.30;;;;;;5090857;28;20487;-71
2023/12/22 07:23:11;;;;;;;0.80;0.50;;;7.80;73.30;;;;;;5091043;28;20386;-71
2023/12/22 07:25:40;;;;;;;1.13;0.70;;;7.90;73.70;;;;;;5090530;28;20394;-71
2023/12/22 07:28:06;;;;;;;6.53;1.10;;;7.90;73.30;;;;;;5090203;28;20795;-71
2023/12/22 07:30:31;;;;;;;7.30;0.90;;;8.00;72.80;;;;;;5090285;28;20864;-71
2023/12/22 07:32:57;;;;;;;9.00;1.10;;;8.00;72.30;;;;;;5090402;28;20421;-71
2023/12/22 07:35:22;;;;;;;2.00;0.70;;;8.00;73.10;;;;;;5090192;28;20444;-71
2023/12/22 07:37:48;;;;;;;1.50;0.70;;;7.90;76.10;;;;;;5072075;28;20394;-71
2023/12/22 07:40:13;;;;;;;1.85;0.63;;;7.80;73.50;;;;;;5090214;28;20753;-71
2023/12/22 07:42:39;;;;;;;1.30;0.50;;;7.90;71.90;;;;;;5090004;28;20475;-70
2023/12/22 07:45:05;;;;;;;2.80;1.10;;;7.80;73.80;;;;;;5090600;28;20421;-70
2023/12/22 07:47:32;;;;;;;0.93;0.63;;;7.90;71.70;;;;;;5090757;28;20427;-71
2023/12/22 07:49:57;;;;;;;1.00;0.70;;;7.80;74.60;;;;;;5092830;28;20378;-71
2023/12/22 07:52:23;;;;;;;8.60;1.60;;;7.80;72.30;;;;;;5094927;28;20507;-71
2023/12/22 07:54:48;;;;;;;0.90;0.70;;;7.80;71.70;;;;;;5096974;28;20740;-71
2023/12/22 07:57:14;;;;;;;8.20;1.00;;;7.80;71.90;;;;;;5098093;28;20374;-71
2023/12/22 07:59:39;;;;;;;1.80;0.80;;;7.80;74.10;;;;;;5099225;28;20396;-71
2023/12/22 08:02:05;;;;;;;0.90;0.90;;;7.70;74.00;;;;;;5100030;28;20381;-71
2023/12/22 08:04:31;;;;;;;0.80;0.45;;;7.70;76.00;;;;;;5100286;28;20412;-71
2023/12/22 08:06:57;;;;;;;3.90;1.10;;;7.80;76.60;;;;;;5101373;28;20378;-71
2023/12/22 08:09:23;;;;;;;0.80;0.50;;;7.90;76.00;;;;;;5100273;28;20840;-73
2023/12/22 08:11:52;;;;;;;1.20;0.60;;;8.00;76.00;;;;;;5100210;28;20374;-72
2023/12/22 08:14:18;;;;;;;2.30;1.17;;;8.00;75.70;;;;;;5100189;28;20398;-72
2023/12/22 08:16:44;;;;;;;0.98;0.50;;;8.10;76.00;;;;;;5101591;28;20374;-72
2023/12/22 08:19:10;;;;;;;3.63;1.37;;;8.20;74.80;;;;;;5100607;28;20447;-71
2023/12/22 08:21:36;;;;;;;0.80;0.65;;;8.20;75.10;;;;;;5100290;28;20945;-71
2023/12/22 08:24:01;;;;;;;0.80;0.50;;;8.30;77.00;;;;;;5100441;28;20446;-72
2023/12/22 08:26:27;;;;;;;0.82;0.55;;;8.30;75.90;;;;;;5101171;28;20387;-71
2023/12/22 08:28:52;;;;;;;19.70;1.20;;;8.40;76.00;;;;;;5096943;28;20740;-71
2023/12/22 08:31:18;;;;;;;1.03;0.67;;;8.40;75.90;;;;;;5095482;28;20750;-71
2023/12/22 08:33:45;;;;;;;1.10;0.80;;;8.50;74.30;;;;;;5081418;22;20805;-73
2023/12/22 08:36:11;;;;;;;8.60;1.65;;;8.60;73.40;;;;;;5038751;28;20790;-75
2023/12/22 08:38:40;;;;;;;1.52;0.77;;;8.60;73.20;;;;;;5073102;28;20860;-74
2023/12/22 08:41:07;;;;;;;1.43;1.30;;;8.70;73.00;;;;;;5073783;28;20383;-74
2023/12/22 08:43:32;;;;;;;2.67;0.80;;;8.70;72.30;;;;;;5073435;28;21099;-75
2023/12/22 08:45:58;;;;;;;0.80;0.50;;;8.70;72.60;;;;;;5073307;28;20499;-74
2023/12/22 08:48:23;;;;;;;0.90;0.50;;;8.80;72.80;;;;;;5074154;28;20384;-73
2023/12/22 08:50:49;;;;;;;6.00;0.82;;;8.90;71.30;;;;;;5073255;28;20766;-73
2023/12/22 08:53:15;;;;;;;5.20;0.80;;;8.90;71.80;;;;;;5073423;28;20471;-73
2023/12/22 08:55:41;;;;;;;2.80;0.90;;;9.00;70.80;;;;;;5073194;28;20392;-75
2023/12/22 08:58:06;;;;;;;3.93;1.07;;;9.00;70.80;;;;;;5073426;28;20383;-75
2023/12/22 09:00:32;;;;;;;1.20;0.90;;;9.00;69.70;;;;;;5072415;28;20458;-73
2023/12/22 09:03:00;;;;;;;7.47;1.70;;;9.10;68.70;;;;;;5073393;28;20388;-76
2023/12/22 09:05:26;;;;;;;1.40;0.80;;;9.20;70.00;;;;;;5073505;28;20391;-73
2023/12/22 09:07:51;;;;;;;2.90;1.50;;;9.20;67.40;;;;;;5072678;28;20394;-74
2023/12/22 09:10:17;;;;;;;3.00;1.20;;;9.30;66.60;;;;;;5072825;28;20371;-75
2023/12/22 09:12:43;;;;;;;1.40;1.20;;;9.30;65.80;;;;;;5072635;28;20463;-75
2023/12/22 09:15:08;;;;;;;1.00;0.70;;;9.30;65.70;;;;;;5072599;28;20878;-75
2023/12/22 09:17:34;;;;;;;5.60;0.70;;;9.40;64.30;;;;;;5072978;28;20486;-73
2023/12/22 09:20:00;;;;;;;0.80;0.50;;;9.40;64.50;;;;;;5072378;28;20865;-73
2023/12/22 09:22:25;;;;;;;1.60;1.23;;;9.50;64.80;;;;;;5073089;28;20391;-74
2023/12/22 09:24:51;;;;;;;3.00;0.70;;;9.50;63.90;;;;;;5074742;28;20399;-73
2023/12/22 09:27:16;;;;;;;0.80;0.70;;;9.50;63.70;;;;;;5074046;28;20474;-73
2023/12/22 09:29:42;;;;;;;1.00;0.70;;;9.60;62.40;;;;;;5072972;28;20388;-73
2023/12/22 09:32:07;;;;;;;0.90;0.80;;;9.50;63.80;;;;;;5055442;28;20383;-74
2023/12/22 09:34:33;;;;;;;1.40;1.20;;;9.50;65.90;;;;;;5072454;28;20472;-73
2023/12/22 09:36:59;;;;;;;4.10;0.80;;;9.50;65.00;;;;;;5072863;28;20417;-74
2023/12/22 09:39:24;;;;;;;4.00;1.48;;;9.60;64.80;;;;;;5074563;28;20387;-74
2023/12/22 09:41:50;;;;;;;2.60;1.10;;;9.60;65.20;;;;;;5078851;28;20402;-74
2023/12/22 09:44:21;;;;;;;1.67;1.50;;;9.60;63.90;;;;;;5075048;28;20490;-73
2023/12/22 09:46:52;;;;;;;1.42;1.00;;;9.60;65.60;;;;;;5072676;28;20441;-75
2023/12/22 09:49:18;;;;;;;15.50;1.20;;;9.50;66.20;;;;;;5072170;28;20499;-75
2023/12/22 09:51:45;;;;;;;1.35;0.70;;;9.60;67.00;;;;;;5072523;28;20437;-74
2023/12/22 09:54:11;;;;;;;1.17;0.98;;;9.60;66.90;;;;;;5071972;28;20884;-74
2023/12/22 09:56:42;;;;;;;1.17;0.77;;;9.60;66.30;;;;;;5072405;28;20398;-73
2023/12/22 09:59:11;;;;;;;1.00;0.80;;;9.70;65.70;;;;;;5072241;28;20437;-73
2023/12/22 10:01:38;;;;;;;0.90;0.50;;;9.70;65.30;;;;;;5072322;28;20384;-74
2023/12/22 10:04:04;;;;;;;1.25;0.77;;;9.70;65.70;;;;;;5071635;28;20403;-74
2023/12/22 10:06:29;;;;;;;1.00;0.80;;;9.80;65.80;;;;;;5071967;28;20881;-74
2023/12/22 10:08:55;;;;;;;1.55;0.88;;;9.80;65.30;;;;;;5076469;28;20813;-75
2023/12/22 10:11:22;;;;;;;3.90;1.30;;;9.90;65.00;;;;;;5072895;28;20935;-74
2023/12/22 10:13:50;;;;;;;1.70;1.20;;;9.80;65.10;;;;;;5071330;28;20414;-74
2023/12/22 10:16:15;;;;;;;1.50;0.70;;;9.80;65.90;;;;;;5054259;28;20949;-74
2023/12/22 10:18:41;;;;;;;3.40;0.53;;;9.80;66.00;;;;;;5072216;28;20472;-73
2023/12/22 10:21:07;;;;;;;0.80;0.50;;;9.80;66.20;;;;;;5073461;28;20450;-74
2023/12/22 10:23:32;;;;;;;1.77;1.00;;;9.90;66.40;;;;;;5085472;28;20392;-73
2023/12/22 10:25:58;;;;;;;6.50;0.80;;;9.90;66.70;;;;;;5090840;28;20440;-75
2023/12/22 10:28:26;;;;;;;1.80;0.80;;;9.90;66.10;;;;;;5089327;28;20395;-74
2023/12/22 10:30:53;;;;;;;1.02;0.73;;;9.90;67.30;;;;;;5071296;28;20391;-73
2023/12/22 10:33:18;;;;;;;1.00;0.80;;;9.90;69.00;;;;;;5071847;28;20445;-74
2023/12/22 10:35:44;;;;;;;0.80;0.50;;;9.80;71.20;;;;;;5072081;28;20395;-75
2023/12/22 10:38:10;;;;;;;0.80;0.70;;;9.80;72.30;;;;;;5072077;28;20808;-74
2023/12/22 10:40:37;;;;;;;0.80;0.50;;;9.90;73.80;;;;;;5074087;28;20414;-73
2023/12/22 10:43:04;;;;;;;6.00;0.90;;;9.80;75.00;;;;;;5088664;28;20404;-73
2023/12/22 10:45:30;;;;;;;0.80;0.80;;;9.80;76.00;;;;;;5087910;28;20387;-73
2023/12/22 10:47:57;;;;;;;0.80;0.50;;;9.80;76.70;;;;;;5072824;28;20376;-75
2023/12/22 10:50:24;;;;;;;2.90;0.80;;;9.80;77.00;;;;;;5071982;28;20796;-75
2023/12/22 10:52:51;;;;;;;0.80;0.50;;;9.80;77.60;;;;;;5071303;28;20494;-75
2023/12/22 10:55:17;;;;;;;0.80;0.50;;;9.80;79.70;;;;;;5070771;28;20383;-72
2023/12/22 10:57:47;;;;;;;1.20;0.70;;;9.80;79.40;;;;;;5071463;28;20380;-75
2023/12/22 11:00:16;;;;;;;0.80;0.50;;;9.70;80.00;;;;;;5070937;28;20395;-75
2023/12/22 11:02:43;;;;;;;0.80;0.50;;;9.90;78.40;;;;;;5070752;28;20388;-73
2023/12/22 11:05:11;;;;;;;9.90;0.60;;;10.00;78.10;;;;;;5071189;28;20382;-74
2023/12/22 11:07:38;;;;;;;1.33;0.75;;;10.10;74.40;;;;;;5075786;28;20391;-75
2023/12/22 11:10:06;;;;;;;0.80;0.60;;;10.20;73.40;;;;;;5052950;28;20387;-73
2023/12/22 11:12:36;;;;;;;0.80;0.50;;;10.20;73.40;;;;;;5070901;28;20407;-73
2023/12/22 11:15:03;;;;;;;0.80;0.50;;;10.30;72.60;;;;;;5071189;28;20454;-73
2023/12/22 11:17:32;;;;;;;2.47;0.55;;;10.40;70.70;;;;;;5072079;28;20380;-74
2023/12/22 11:19:58;;;;;;;0.80;0.50;;;10.40;70.40;;;;;;5071413;28;20384;-75
2023/12/22 11:22:25;;;;;;;0.80;0.50;;;10.40;69.60;;;;;;5071012;28;20448;-73
2023/12/22 11:24:52;;;;;;;0.80;0.50;;;10.40;70.10;;;;;;5073565;28;20415;-73
2023/12/22 11:27:19;;;;;;;2.30;0.60;;;10.50;69.20;;;;;;5074955;28;20383;-74
2023/12/22 11:29:49;;;;;;;1.10;0.60;;;10.50;70.30;;;;;;5074790;28;20418;-73
2023/12/22 11:32:19;;;;;;;0.80;0.60;;;10.60;69.30;;;;;;5056438;28;20411;-73
2023/12/22 11:34:46;;;;;;;0.80;0.50;;;10.60;68.50;;;;;;5074259;28;20850;-73
2023/12/22 11:37:13;;;;;;;0.80;0.50;;;10.60;68.70;;;;;;5074385;28;20755;-73
2023/12/22 11:39:43;;;;;;;0.80;0.50;;;10.70;67.90;;;;;;5074374;28;20719;-74
2023/12/22 11:42:23;;;;;;;0.82;0.57;;;10.70;67.80;;;;;;5074805;28;20738;-75
2023/12/22 11:44:48;;;;;;;0.80;0.50;;;10.80;67.60;;;;;;5076618;28;20383;-76
2023/12/22 11:47:14;;;;;;;1.50;0.60;;;10.80;65.90;;;;;;5076895;28;20741;-73
2023/12/22 11:49:40;;;;;;;0.80;0.50;;;10.80;67.30;;;;;;5075732;28;20404;-74
2023/12/22 11:52:29;;;;;;;0.80;0.50;;;10.80;66.10;;;;;;5056932;28;20810;-76
2023/12/22 11:54:56;;;;;;;1.10;0.68;;;10.80;66.50;;;;;;5061026;28;20457;-74
2023/12/22 11:57:27;;;;;;;1.00;0.70;;;10.80;66.00;;;;;;5074217;28;20460;-73
2023/12/22 12:00:03;;;;;;;0.80;0.50;;;10.90;64.00;;;;;;5073903;28;20429;-73
2023/12/22 12:02:30;;;;;;;1.00;0.70;;;10.90;63.70;;;;;;5073964;28;20451;-74
2023/12/22 12:04:59;;;;;;;1.50;0.50;;;10.90;63.00;;;;;;5074012;28;20387;-74
2023/12/22 12:07:41;;;;;;;1.50;1.20;;;11.00;62.20;;;;;;5074727;28;20436;-74
2023/12/22 12:10:11;;;;;;;1.10;0.70;;;11.00;61.40;;;;;;5074092;28;20442;-72
2023/12/22 12:12:37;;;;;;;1.50;0.60;;;11.10;60.80;;;;;;5073913;28;20415;-74
2023/12/22 12:15:12;;;;;;;1.00;0.70;;;11.10;60.00;;;;;;5074003;28;20379;-74
2023/12/22 12:17:42;;;;;;;6.07;2.50;;;11.00;59.20;;;;;;5074263;28;20414;-74
2023/12/22 12:20:09;;;;;;;4.47;1.50;;;11.00;59.50;;;;;;5074998;28;20802;-74
2023/12/22 12:22:37;;;;;;;9.20;2.42;;;11.00;58.10;;;;;;5073658;28;20422;-74
2023/12/22 12:25:08;;;;;;;4.75;2.03;;;11.00;60.50;;;;;;5073922;28;20471;-73
2023/12/22 12:27:36;;;;;;;8.50;2.30;;;11.10;59.70;;;;;;5073495;28;20483;-75
2023/12/22 12:30:13;;;;;;;7.57;2.55;;;11.10;58.60;;;;;;5074145;28;20388;-75
2023/12/22 12:32:42;;;;;;;12.80;3.35;;;11.10;58.10;;;;;;5075060;28;20452;-73
2023/12/22 12:35:08;;;;;;;9.02;2.60;;;11.20;57.70;;;;;;5074981;28;20395;-73
2023/12/22 12:37:34;;;;;;;7.82;3.60;;;11.20;55.60;;;;;;5074857;28;20391;-73
2023/12/22 12:40:04;;;;;;;11.68;2.42;;;11.20;56.50;;;;;;5075113;28;20408;-75
2023/12/22 12:42:32;;;;;;;4.73;2.60;;;11.30;56.60;;;;;;5075109;28;20388;-73
2023/12/22 12:44:58;;;;;;;5.32;2.03;;;11.30;57.20;;;;;;5074841;28;20390;-73
2023/12/22 12:47:24;;;;;;;6.10;2.20;;;11.30;57.60;;;;;;5075538;28;20388;-73
2023/12/22 12:50:01;;;;;;;12.50;2.47;;;11.30;56.30;;;;;;5084771;28;20398;-73
2023/12/22 12:52:27;;;;;;;4.60;2.20;;;11.30;56.20;;;;;;5089187;28;20416;-74